This is the latest recevied weather packets stored in our database for station/object DL4YM-13. If no packets are shown the sender has not sent any weather packets the latest 10 day(s).
| Time | Temp. | Humidity | Pressure | Rain* | Wind** | Luminosity | Snow |
|---|---|---|---|---|---|---|---|
| 1777703125 | 12.22° C | 57% | 1004.2 hPa | - | - | - | - |
| 1777702525 | 12.22° C | 57% | 1004.2 hPa | - | - | - | - |
| 1777701925 | 12.22° C | 57% | 1004.2 hPa | - | - | - | - |
| 1777701325 | 11.67° C | 58% | 1004.1 hPa | - | - | - | - |
| 1777700725 | 11.11° C | 60% | 1004.2 hPa | - | - | - | - |
| 1777700125 | 10° C | 62% | 1004.3 hPa | - | - | - | - |
| 1777699526 | 10° C | 62% | 1004.3 hPa | - | - | - | - |
| 1777698925 | 10° C | 61% | 1004.4 hPa | - | - | - | - |
| 1777698325 | 9.44° C | 62% | 1004.5 hPa | - | - | - | - |
| 1777697725 | 9.44° C | 62% | 1004.5 hPa | - | - | - | - |
| 1777697125 | 9.44° C | 63% | 1004.5 hPa | - | - | - | - |
| 1777696525 | 8.89° C | 67% | 1004.5 hPa | - | - | - | - |
| 1777695925 | 8.89° C | 67% | 1004.5 hPa | - | - | - | - |
| 1777695325 | 8.89° C | 65% | 1004.7 hPa | - | - | - | - |
| 1777694725 | 8.89° C | 65% | 1004.7 hPa | - | - | - | - |
| 1777694125 | 8.89° C | 65% | 1004.7 hPa | - | - | - | - |
| 1777693525 | 8.89° C | 65% | 1004.7 hPa | - | - | - | - |
| 1777692925 | 8.89° C | 65% | 1004.7 hPa | - | - | - | - |
| 1777692325 | 9.44° C | 64% | 1004.9 hPa | - | - | - | - |
| 1777691725 | 9.44° C | 64% | 1004.9 hPa | - | - | - | - |
| 1777691125 | 9.44° C | 63% | 1005 hPa | - | - | - | - |
| 1777690525 | 9.44° C | 63% | 1005 hPa | - | - | - | - |
| 1777689925 | 10° C | 62% | 1005.1 hPa | - | - | - | - |
| 1777689325 | 10° C | 62% | 1005.3 hPa | - | - | - | - |
| 1777688725 | 10° C | 62% | 1005.3 hPa | - | - | - | - |
* Rain since midnight (hover to see other rain measurements)
** Current wind speed in m/s (hover to see current wind gust speed)